Flight Track Log - Related Links

Times and Time Zones

All times are in EDT time to prevent confusion due to time zone crossing. See the EJA122 flight status page for this flight to view local times or setup timezone preferences in your user account.

Time Position Orientation Groundspeed Altitude Reporting Facility
EDT Latitude Longitude Course Direction KTS MPH feet Rate Location/Type
Fri 12:35:48 PM 36.5833 -121.7833 112° Southeast 198 228 2,900  Level Northern Cal TRACON
Fri 12:36:43 PM 36.6000 -121.7167 73° East 252 290 5,400 2,661 Climbing Northern Cal TRACON
Fri 12:37:43 PM 36.5667 -121.6333 116° Southeast 294 338 8,000 2,313 Climbing Northern Cal TRACON
Fri 12:38:06 PM 36.5533 -121.6067 122° Southeast 294 338 8,600 1,835 Climbing Oakland Center
Fri 12:39:08 PM 36.5047 -121.5219 126° Southeast 301 346 10,600 1,707 Climbing Oakland Center
Fri 12:40:09 PM 36.4558 -121.4317 124° Southeast 314 361 12,100 1,463 Climbing Oakland Center
Fri 12:41:00 PM 36.3860 -121.1414 112° Southeast  Level FlightAware Approximate
Fri 12:41:11 PM 36.4047 -121.3417 125° Southeast 320 368 13,600  Level Oakland Center
Fri 12:42:12 PM 36.3539 -121.2528 125° Southeast 318 366 15,100 1,756 Climbing Oakland Center
Fri 12:43:14 PM 36.2906 -121.1425 125° Southeast 328 377 17,200 1,854 Climbing Oakland Center
Fri 12:44:15 PM 36.2378 -121.0489 125° Southeast 332 382 18,900 1,512 Climbing Oakland Center
Fri 12:45:17 PM 36.1817 -120.9544 126° Southeast 340 391 20,300 1,355 Climbing Oakland Center
Fri 12:46:19 PM 36.1278 -120.8581 125° Southeast 342 394 21,700 1,415 Climbing Oakland Center
Fri 12:47:20 PM 36.0733 -120.7628 125° Southeast 341 392 23,200 1,415 Climbing Oakland Center
Fri 12:48:22 PM 36.0186 -120.6681 126° Southeast 338 389 24,600 1,415 Climbing Oakland Center
Fri 12:49:23 PM 35.9622 -120.5731 126° Southeast 342 394 26,100 1,366 Climbing Oakland Center
Fri 12:50:25 PM 35.9036 -120.4744 126° Southeast 355 409 27,400 1,366 Climbing Oakland Center
Fri 12:51:26 PM 35.8342 -120.3525 125° Southeast 363 418 28,900 1,317 Climbing Oakland Center
Fri 12:52:28 PM 35.7736 -120.2503 126° Southeast 367 422 30,100 1,016 Climbing Oakland Center
Fri 12:53:30 PM 35.7128 -120.1458 126° Southeast 371 427 31,000 439 Climbing Oakland Center
Fri 12:54:31 PM 35.6472 -120.0347 126° Southeast 397 457 31,000  Level Oakland Center
Fri 12:55:12 PM 35.6214 -119.9886 125° Southeast 402 463 31,000  Level Los Angeles Center
Fri 12:56:14 PM 35.5356 -119.8447 126° Southeast 427 491 31,000  Level Los Angeles Center
Fri 12:56:35 PM 35.5053 -119.7947 127° Southeast 435 501 31,000 366 Level Oakland Center
Fri 12:57:36 PM 35.4311 -119.6742 127° Southeast 441 507 31,500 699 Climbing Oakland Center
Fri 12:58:18 PM 35.3772 -119.5794 125° Southeast 434 499 32,200 923 Climbing Los Angeles Center
Fri 12:59:20 PM 35.3097 -119.4667 126° Southeast 419 482 33,100 919 Climbing Los Angeles Center
Fri 01:00:22 PM 35.2528 -119.3486 121° Southeast 408 470 34,100 968 Climbing Los Angeles Center
Fri 01:01:24 PM 35.1969 -119.2300 120° Southeast 405 466 35,100 960 Climbing Los Angeles Center
Fri 01:02:27 PM 35.1422 -119.1153 120° Southeast 395 455 36,100 912 Climbing Los Angeles Center
Fri 01:03:29 PM 35.0897 -119.0014 119° Southeast 388 447 37,000 823 Climbing Los Angeles Center
Fri 01:04:31 PM 35.0247 -118.8692 121° Southeast 381 438 37,800 581 Climbing Los Angeles Center
Fri 01:05:33 PM 34.9711 -118.7564 120° Southeast 383 441 38,200 387 Climbing Los Angeles Center
Fri 01:06:35 PM 34.9153 -118.6442 121° Southeast 386 444 38,600 339 Climbing Los Angeles Center
Fri 01:07:37 PM 34.8558 -118.5217 121° Southeast 391 450 38,900 194 Climbing Los Angeles Center
Fri 01:08:39 PM 34.8022 -118.4144 121° Southeast 398 458 39,000 48 Climbing Los Angeles Center
Fri 01:09:41 PM 34.7447 -118.2967 121° Southeast 404 465 39,000  Level Los Angeles Center
Fri 01:10:44 PM 34.6711 -118.1469 121° Southeast 421 484 39,000  Level Los Angeles Center
Fri 01:11:46 PM 34.6175 -118.0192 117° Southeast 440 506 39,000  Level Los Angeles Center
Fri 01:12:48 PM 34.5764 -117.8825 110° East 438 504 39,000  Level Los Angeles Center
Fri 01:14:02 PM 34.5344 -117.7422 110° East 445 512 39,000  Level Los Angeles Center
Fri 01:15:04 PM 34.4750 -117.5444 110° East 449 517 39,000  Level Los Angeles Center
Fri 01:16:06 PM 34.4308 -117.4003 110° East 458 527 39,000  Level Los Angeles Center
Fri 01:17:09 PM 34.3881 -117.2564 110° East 459 528 39,000  Level Los Angeles Center
Fri 01:18:11 PM 34.3442 -117.1144 110° East 455 524 39,000  Level Los Angeles Center
Fri 01:19:13 PM 34.3011 -116.9719 110° East 455 524 39,000  Level Los Angeles Center
Fri 01:20:15 PM 34.2486 -116.8031 111° Southeast 451 519 39,000  Level Los Angeles Center
Fri 01:21:17 PM 34.2058 -116.6633 110° East 446 513 39,000  Level Los Angeles Center
Fri 01:22:19 PM 34.1606 -116.5206 111° Southeast 456 525 39,000 -97 Level Los Angeles Center
Fri 01:23:21 PM 34.1236 -116.3936 109° East 464 534 38,800 -1,258 Descending Los Angeles Center
Fri 01:24:23 PM 34.0697 -116.2306 112° Southeast 441 507 36,400 -1,824 Descending Los Angeles Center
Fri 01:25:26 PM 34.0283 -116.0936 110° East 436 502 35,000 -672 Descending Los Angeles Center
Fri 01:26:28 PM 33.9825 -115.9489 111° Southeast 451 519 35,000  Level Los Angeles Center
Fri 01:27:30 PM 33.9328 -115.7961 111° Southeast 483 556 35,000  Level Los Angeles Center
Fri 01:28:32 PM 33.8761 -115.6147 111° Southeast 483 556 35,000  Level Los Angeles Center
Fri 01:29:34 PM 33.8303 -115.4603 110° East 488 562 35,000  Level Los Angeles Center
Fri 01:30:36 PM 33.7831 -115.3044 110° East 495 570 35,000  Level Los Angeles Center
Fri 01:31:38 PM 33.7361 -115.1486 110° East 495 570 35,000  Level Los Angeles Center
Fri 01:32:40 PM 33.6892 -114.9919 110° East 498 573 35,000  Level Los Angeles Center
Fri 01:33:42 PM 33.6406 -114.8358 110° East 498 573 35,000  Level Los Angeles Center
Fri 01:34:45 PM 33.5836 -114.6489 110° East 497 572 35,000  Level Los Angeles Center
Fri 01:35:47 PM 33.5350 -114.4911 110° East 502 578 35,000  Level Los Angeles Center
Fri 01:36:49 PM 33.4861 -114.3347 111° Southeast 502 578 35,000  Level Los Angeles Center
Fri 01:37:51 PM 33.4367 -114.1789 111° Southeast 501 577 35,000  Level Los Angeles Center
Fri 01:38:45 PM 33.3936 -114.0397 110° East 505 581 35,000  Level Albuquerque Center
Fri 01:39:47 PM 33.3450 -113.8822 110° East 506 582 35,000  Level Albuquerque Center
Fri 01:40:49 PM 33.2961 -113.7275 111° Southeast 503 579 35,000  Level Albuquerque Center
Fri 01:41:51 PM 33.2378 -113.5397 110° East 502 578 35,000  Level Albuquerque Center
Fri 01:42:53 PM 33.1872 -113.3839 111° Southeast 502 578 35,000  Level Albuquerque Center
Fri 01:43:55 PM 33.1372 -113.2294 111° Southeast 500 575 35,000  Level Albuquerque Center
Fri 01:44:57 PM 33.0878 -113.0736 111° Southeast 501 577 35,000  Level Albuquerque Center
Fri 01:45:59 PM 33.0369 -112.9189 111° Southeast 500 575 35,000  Level Albuquerque Center
Fri 01:47:01 PM 32.9856 -112.7619 111° Southeast 503 579 35,000  Level Albuquerque Center
Fri 01:48:03 PM 32.9322 -112.6075 112° Southeast 503 579 35,000  Level Albuquerque Center
Fri 01:49:05 PM 32.8608 -112.4258 115° Southeast 504 580 35,000 -1,839 Level Albuquerque Center
Fri 01:50:07 PM 32.8033 -112.2758 114° Southeast 500 575 31,200 -2,855 Descending Albuquerque Center
Fri 01:51:09 PM 32.7522 -112.1442 115° Southeast 490 564 29,100 -1,742 Descending Albuquerque Center
Fri 01:52:11 PM 32.6992 -112.0072 115° Southeast 468 539 27,600 -2,516 Descending Albuquerque Center
Fri 01:53:13 PM 32.6322 -111.8314 114° Southeast 484 557 23,900 -3,290 Descending Albuquerque Center
Fri 01:54:15 PM 32.5831 -111.7100 116° Southeast 430 495 20,800 -3,402 Descending Albuquerque Center
Fri 01:55:20 PM 32.5222 -111.5867 120° Southeast 384 442 16,700 -3,731 Descending Albuquerque Center
Fri 01:56:14 PM 32.4808 -111.4917 117° Southeast 361 415 13,400 -2,281 Descending Albuquerque Center
Fri 01:57:21 PM 32.4519 -111.4006 111° Southeast 329 379 12,100 -1,359 Descending Albuquerque Center
Fri 01:58:22 PM 32.4161 -111.2992 113° Southeast 295 339 10,500 -1,645 Descending Albuquerque Center
Fri 01:59:25 PM 32.3592 -111.2244 132° Southeast 299 344 8,700 -1,587 Descending Albuquerque Center
Fri 02:00:23 PM 32.3011 -111.1586 136° Southeast 284 327 7,300 -1,462 Descending Albuquerque Center
Fri 02:01:24 PM 32.2456 -111.0928 135° Southeast 278 320 5,800 -1,339 Descending Albuquerque Center
Fri 02:02:24 PM 32.1983 -111.0375 135° Southeast 251 289 4,600 -891 Descending Albuquerque Center
Fri 02:03:32 PM 32.1533 -110.9731 130° Southeast 251 289 3,900 -939 Descending Albuquerque Center
Fri 02:04:19 PM 32.1289 -110.9556 149° Southeast 159 183 2,800 -1,404 Descending Albuquerque Center
Fri 02:06:00 PM 32.1161 -110.9410 140° Southeast  Level Estimated

Login

Don't have an account? Register now (free) for customized features, flight alerts, and more!